sensor_id;sensor_type;location;lat;lon;timestamp;pressure;altitude;pressure_sealevel;temperature;humidity
50166;BME280;36071;48.140;11.516;2023-02-01T00:03:28;96040.0;;;3.5;65.5
50166;BME280;36071;48.140;11.516;2023-02-01T00:08:28;96050.0;;;3.5;64.9
50166;BME280;36071;48.140;11.516;2023-02-01T00:13:28;96030.0;;;3.5;64.9
50166;BME280;36071;48.140;11.516;2023-02-01T00:18:28;96040.0;;;3.5;64.5
50166;BME280;36071;48.140;11.516;2023-02-01T00:23:28;96030.0;;;3.5;64.6
50166;BME280;36071;48.140;11.516;2023-02-01T00:28:28;96050.0;;;3.5;65.0
50166;BME280;36071;48.140;11.516;2023-02-01T00:33:28;96030.0;;;3.5;65.3
50166;BME280;36071;48.140;11.516;2023-02-01T00:38:28;96030.0;;;3.5;66.3
50166;BME280;36071;48.140;11.516;2023-02-01T00:43:28;96030.0;;;3.5;67.0
50166;BME280;36071;48.140;11.516;2023-02-01T00:48:28;96030.0;;;3.3;68.2
50166;BME280;36071;48.140;11.516;2023-02-01T00:53:28;96020.0;;;3.2;69.8
50166;BME280;36071;48.140;11.516;2023-02-01T00:58:28;96010.0;;;3.3;70.6
50166;BME280;36071;48.140;11.516;2023-02-01T01:03:28;96010.0;;;3.2;72.0
50166;BME280;36071;48.140;11.516;2023-02-01T01:08:28;96020.0;;;3.0;73.5
50166;BME280;36071;48.140;11.516;2023-02-01T01:13:28;96010.0;;;3.1;73.3
50166;BME280;36071;48.140;11.516;2023-02-01T01:18:28;96010.0;;;3.0;73.2
50166;BME280;36071;48.140;11.516;2023-02-01T01:23:28;96000.0;;;3.0;74.0
50166;BME280;36071;48.140;11.516;2023-02-01T01:28:28;96010.0;;;3.0;74.1
50166;BME280;36071;48.140;11.516;2023-02-01T01:33:28;96020.0;;;3.1;74.3
50166;BME280;36071;48.140;11.516;2023-02-01T01:38:28;96010.0;;;3.1;75.2
50166;BME280;36071;48.140;11.516;2023-02-01T01:43:44;96000.0;;;3.1;75.8
50166;BME280;36071;48.140;11.516;2023-02-01T01:48:28;96000.0;;;3.0;76.8
50166;BME280;36071;48.140;11.516;2023-02-01T01:53:30;95980.0;;;3.0;77.6
50166;BME280;36071;48.140;11.516;2023-02-01T01:58:28;95980.0;;;2.9;78.5
50166;BME280;36071;48.140;11.516;2023-02-01T02:03:30;95970.0;;;3.0;78.5
50166;BME280;36071;48.140;11.516;2023-02-01T02:08:28;95950.0;;;2.9;79.1
50166;BME280;36071;48.140;11.516;2023-02-01T02:13:29;95960.0;;;2.7;79.7
50166;BME280;36071;48.140;11.516;2023-02-01T02:18:30;95960.0;;;2.8;79.9
50166;BME280;36071;48.140;11.516;2023-02-01T02:28:49;95980.0;;;2.8;80.0
50166;BME280;36071;48.140;11.516;2023-02-01T02:33:36;95990.0;;;2.8;79.7
50166;BME280;36071;48.140;11.516;2023-02-01T02:38:30;95980.0;;;2.7;80.3
50166;BME280;36071;48.140;11.516;2023-02-01T02:43:29;95990.0;;;2.8;80.5
50166;BME280;36071;48.140;11.516;2023-02-01T02:48:29;95970.0;;;2.8;79.6
50166;BME280;36071;48.140;11.516;2023-02-01T02:53:29;95870.0;;;2.2;80.0
50166;BME280;36071;48.140;11.516;2023-02-01T02:58:28;95960.0;;;2.8;79.9
50166;BME280;36071;48.140;11.516;2023-02-01T03:03:29;95980.0;;;2.8;79.7
50166;BME280;36071;48.140;11.516;2023-02-01T03:08:29;95950.0;;;2.8;79.5
50166;BME280;36071;48.140;11.516;2023-02-01T03:13:31;95940.0;;;2.9;78.6
50166;BME280;36071;48.140;11.516;2023-02-01T03:18:29;95950.0;;;3.0;77.9
50166;BME280;36071;48.140;11.516;2023-02-01T03:23:29;95930.0;;;3.0;77.5
50166;BME280;36071;48.140;11.516;2023-02-01T03:28:28;95940.0;;;3.0;77.3
50166;BME280;36071;48.140;11.516;2023-02-01T03:33:28;95940.0;;;3.0;76.8
50166;BME280;36071;48.140;11.516;2023-02-01T03:38:29;95940.0;;;3.0;76.7
50166;BME280;36071;48.140;11.516;2023-02-01T03:43:29;95930.0;;;3.0;76.5
50166;BME280;36071;48.140;11.516;2023-02-01T03:48:28;95930.0;;;3.1;76.0
50166;BME280;36071;48.140;11.516;2023-02-01T03:53:28;95930.0;;;3.1;76.1
50166;BME280;36071;48.140;11.516;2023-02-01T03:58:28;95930.0;;;3.1;75.8
50166;BME280;36071;48.140;11.516;2023-02-01T04:03:28;95930.0;;;3.1;75.4
50166;BME280;36071;48.140;11.516;2023-02-01T04:08:28;95930.0;;;3.2;75.0
50166;BME280;36071;48.140;11.516;2023-02-01T04:13:28;95940.0;;;3.2;74.6
50166;BME280;36071;48.140;11.516;2023-02-01T04:18:28;95930.0;;;3.2;74.4
50166;BME280;36071;48.140;11.516;2023-02-01T04:23:28;95940.0;;;3.2;74.4
50166;BME280;36071;48.140;11.516;2023-02-01T04:28:28;95930.0;;;3.2;74.2
50166;BME280;36071;48.140;11.516;2023-02-01T04:33:28;95920.0;;;3.2;73.9
50166;BME280;36071;48.140;11.516;2023-02-01T04:38:28;95920.0;;;3.1;73.9
50166;BME280;36071;48.140;11.516;2023-02-01T04:43:28;95930.0;;;3.1;73.5
50166;BME280;36071;48.140;11.516;2023-02-01T04:48:28;95920.0;;;3.1;73.3
50166;BME280;36071;48.140;11.516;2023-02-01T04:53:28;95920.0;;;3.1;73.4
50166;BME280;36071;48.140;11.516;2023-02-01T04:58:28;95930.0;;;3.1;73.1
50166;BME280;36071;48.140;11.516;2023-02-01T05:03:28;95930.0;;;3.1;73.0
50166;BME280;36071;48.140;11.516;2023-02-01T05:13:28;95920.0;;;3.0;73.2
50166;BME280;36071;48.140;11.516;2023-02-01T05:18:28;95900.0;;;2.9;72.7
50166;BME280;36071;48.140;11.516;2023-02-01T05:23:28;95940.0;;;3.1;72.6
50166;BME280;36071;48.140;11.516;2023-02-01T05:28:28;95940.0;;;3.0;72.5
50166;BME280;36071;48.140;11.516;2023-02-01T05:33:28;95940.0;;;3.0;72.6
50166;BME280;36071;48.140;11.516;2023-02-01T05:38:28;95930.0;;;3.1;72.4
50166;BME280;36071;48.140;11.516;2023-02-01T05:43:29;95930.0;;;3.1;72.6
50166;BME280;36071;48.140;11.516;2023-02-01T05:48:28;95940.0;;;3.1;72.1
50166;BME280;36071;48.140;11.516;2023-02-01T05:53:28;95930.0;;;3.1;72.2
50166;BME280;36071;48.140;11.516;2023-02-01T05:58:28;95930.0;;;3.1;72.5
50166;BME280;36071;48.140;11.516;2023-02-01T06:03:28;95930.0;;;3.1;72.4
50166;BME280;36071;48.140;11.516;2023-02-01T06:08:28;95920.0;;;3.1;72.6
50166;BME280;36071;48.140;11.516;2023-02-01T06:13:28;95920.0;;;3.1;72.7
50166;BME280;36071;48.140;11.516;2023-02-01T06:18:28;95920.0;;;3.2;72.1
50166;BME280;36071;48.140;11.516;2023-02-01T06:23:28;95930.0;;;3.2;72.0
50166;BME280;36071;48.140;11.516;2023-02-01T06:28:28;95930.0;;;3.2;72.3
50166;BME280;36071;48.140;11.516;2023-02-01T06:33:28;95920.0;;;3.2;72.2
50166;BME280;36071;48.140;11.516;2023-02-01T06:38:28;95920.0;;;3.2;72.1
50166;BME280;36071;48.140;11.516;2023-02-01T06:43:28;95900.0;;;3.2;72.1
50166;BME280;36071;48.140;11.516;2023-02-01T06:48:28;95920.0;;;3.1;72.3
50166;BME280;36071;48.140;11.516;2023-02-01T06:53:28;95930.0;;;3.2;72.0
50166;BME280;36071;48.140;11.516;2023-02-01T06:58:28;95930.0;;;3.2;72.2
50166;BME280;36071;48.140;11.516;2023-02-01T07:03:28;95910.0;;;3.2;71.9
50166;BME280;36071;48.140;11.516;2023-02-01T07:08:28;95910.0;;;3.2;71.8
50166;BME280;36071;48.140;11.516;2023-02-01T07:13:28;95930.0;;;3.3;71.5
50166;BME280;36071;48.140;11.516;2023-02-01T07:18:28;95910.0;;;3.3;71.6
50166;BME280;36071;48.140;11.516;2023-02-01T07:23:28;95910.0;;;3.3;71.4
50166;BME280;36071;48.140;11.516;2023-02-01T07:28:29;95900.0;;;3.3;70.9
50166;BME280;36071;48.140;11.516;2023-02-01T07:33:28;95890.0;;;3.3;70.8
50166;BME280;36071;48.140;11.516;2023-02-01T07:38:28;95890.0;;;3.3;70.7
50166;BME280;36071;48.140;11.516;2023-02-01T07:43:28;95900.0;;;3.4;70.4
50166;BME280;36071;48.140;11.516;2023-02-01T07:48:28;95920.0;;;3.4;70.3
50166;BME280;36071;48.140;11.516;2023-02-01T07:53:28;95890.0;;;3.4;70.1
50166;BME280;36071;48.140;11.516;2023-02-01T07:58:28;95910.0;;;3.5;69.8
50166;BME280;36071;48.140;11.516;2023-02-01T08:03:28;95920.0;;;3.5;69.1
50166;BME280;36071;48.140;11.516;2023-02-01T08:08:28;95930.0;;;3.6;68.6
50166;BME280;36071;48.140;11.516;2023-02-01T08:13:28;95950.0;;;3.6;68.2
50166;BME280;36071;48.140;11.516;2023-02-01T08:18:28;95950.0;;;3.6;67.9
50166;BME280;36071;48.140;11.516;2023-02-01T08:23:28;95940.0;;;3.7;67.6
50166;BME280;36071;48.140;11.516;2023-02-01T08:28:28;95940.0;;;3.7;66.9
50166;BME280;36071;48.140;11.516;2023-02-01T08:33:28;95960.0;;;3.7;65.8
50166;BME280;36071;48.140;11.516;2023-02-01T08:38:28;95950.0;;;3.8;66.2
50166;BME280;36071;48.140;11.516;2023-02-01T08:43:28;95950.0;;;3.8;65.4
50166;BME280;36071;48.140;11.516;2023-02-01T08:48:28;95960.0;;;3.9;64.9
50166;BME280;36071;48.140;11.516;2023-02-01T08:53:28;95950.0;;;3.9;64.4
50166;BME280;36071;48.140;11.516;2023-02-01T08:58:28;95940.0;;;4.0;64.4
50166;BME280;36071;48.140;11.516;2023-02-01T09:03:28;95940.0;;;4.0;64.1
50166;BME280;36071;48.140;11.516;2023-02-01T09:08:28;95960.0;;;4.0;63.8
50166;BME280;36071;48.140;11.516;2023-02-01T09:13:28;95950.0;;;4.1;63.3
50166;BME280;36071;48.140;11.516;2023-02-01T09:18:28;95960.0;;;4.1;62.9
50166;BME280;36071;48.140;11.516;2023-02-01T09:23:28;95960.0;;;4.3;62.9
50166;BME280;36071;48.140;11.516;2023-02-01T09:28:28;95940.0;;;4.2;63.3
50166;BME280;36071;48.140;11.516;2023-02-01T09:33:28;95940.0;;;4.3;63.2
50166;BME280;36071;48.140;11.516;2023-02-01T09:38:28;95950.0;;;4.3;62.9
50166;BME280;36071;48.140;11.516;2023-02-01T09:43:33;95960.0;;;4.4;62.8
50166;BME280;36071;48.140;11.516;2023-02-01T09:48:29;95950.0;;;4.6;62.6
50166;BME280;36071;48.140;11.516;2023-02-01T09:53:29;95950.0;;;4.6;62.7
50166;BME280;36071;48.140;11.516;2023-02-01T09:58:30;95950.0;;;4.5;62.2
50166;BME280;36071;48.140;11.516;2023-02-01T10:03:28;95960.0;;;4.6;62.5
50166;BME280;36071;48.140;11.516;2023-02-01T10:08:31;95980.0;;;4.5;62.5
50166;BME280;36071;48.140;11.516;2023-02-01T10:13:31;95960.0;;;4.5;62.7
50166;BME280;36071;48.140;11.516;2023-02-01T10:18:31;95980.0;;;4.5;63.1
50166;BME280;36071;48.140;11.516;2023-02-01T10:23:35;95960.0;;;4.5;63.1
50166;BME280;36071;48.140;11.516;2023-02-01T10:28:28;95990.0;;;4.5;63.3
50166;BME280;36071;48.140;11.516;2023-02-01T10:33:30;95970.0;;;4.5;63.2
50166;BME280;36071;48.140;11.516;2023-02-01T10:38:28;95970.0;;;4.5;63.1
50166;BME280;36071;48.140;11.516;2023-02-01T10:43:28;95970.0;;;4.5;63.4
50166;BME280;36071;48.140;11.516;2023-02-01T10:48:28;95980.0;;;4.6;63.6
50166;BME280;36071;48.140;11.516;2023-02-01T10:53:29;95970.0;;;4.6;63.5
50166;BME280;36071;48.140;11.516;2023-02-01T10:58:29;95950.0;;;4.6;63.9
50166;BME280;36071;48.140;11.516;2023-02-01T11:03:32;95970.0;;;4.6;64.0
50166;BME280;36071;48.140;11.516;2023-02-01T11:08:28;95980.0;;;4.5;64.1
50166;BME280;36071;48.140;11.516;2023-02-01T11:13:29;95990.0;;;4.5;64.5
50166;BME280;36071;48.140;11.516;2023-02-01T11:18:28;95980.0;;;4.6;63.7
50166;BME280;36071;48.140;11.516;2023-02-01T11:23:28;95980.0;;;4.7;63.9
50166;BME280;36071;48.140;11.516;2023-02-01T11:28:29;96000.0;;;4.6;63.8
50166;BME280;36071;48.140;11.516;2023-02-01T11:33:30;96000.0;;;4.6;63.6
50166;BME280;36071;48.140;11.516;2023-02-01T11:38:28;95990.0;;;4.5;63.9
50166;BME280;36071;48.140;11.516;2023-02-01T11:43:28;96010.0;;;4.5;63.6
50166;BME280;36071;48.140;11.516;2023-02-01T11:48:29;96010.0;;;4.4;63.6
50166;BME280;36071;48.140;11.516;2023-02-01T11:53:32;95980.0;;;4.5;63.9
50166;BME280;36071;48.140;11.516;2023-02-01T11:58:39;95990.0;;;4.4;64.5
50166;BME280;36071;48.140;11.516;2023-02-01T12:03:33;95970.0;;;4.3;64.6
50166;BME280;36071;48.140;11.516;2023-02-01T12:08:32;95960.0;;;4.3;64.6
50166;BME280;36071;48.140;11.516;2023-02-01T12:13:32;95950.0;;;4.4;64.1
50166;BME280;36071;48.140;11.516;2023-02-01T12:18:32;95950.0;;;4.3;64.4
50166;BME280;36071;48.140;11.516;2023-02-01T12:23:33;95870.0;;;4.0;64.4
50166;BME280;36071;48.140;11.516;2023-02-01T12:33:30;95960.0;;;4.3;64.4
50166;BME280;36071;48.140;11.516;2023-02-01T12:38:35;95950.0;;;4.3;64.4
50166;BME280;36071;48.140;11.516;2023-02-01T12:43:33;95950.0;;;4.1;64.4
50166;BME280;36071;48.140;11.516;2023-02-01T12:48:29;95940.0;;;4.2;64.1
50166;BME280;36071;48.140;11.516;2023-02-01T12:53:30;95930.0;;;4.3;63.7
50166;BME280;36071;48.140;11.516;2023-02-01T12:58:30;95930.0;;;4.3;62.7
50166;BME280;36071;48.140;11.516;2023-02-01T13:03:31;95930.0;;;4.3;62.4
50166;BME280;36071;48.140;11.516;2023-02-01T13:08:32;95900.0;;;4.3;62.4
50166;BME280;36071;48.140;11.516;2023-02-01T13:13:28;95890.0;;;4.4;62.3
50166;BME280;36071;48.140;11.516;2023-02-01T13:18:31;95900.0;;;4.4;62.7
50166;BME280;36071;48.140;11.516;2023-02-01T13:23:29;95900.0;;;4.4;62.8
50166;BME280;36071;48.140;11.516;2023-02-01T13:28:29;95900.0;;;4.4;63.4
50166;BME280;36071;48.140;11.516;2023-02-01T13:33:33;95900.0;;;4.3;64.1
50166;BME280;36071;48.140;11.516;2023-02-01T13:38:34;95900.0;;;4.4;64.7
50166;BME280;36071;48.140;11.516;2023-02-01T13:43:28;95890.0;;;4.3;65.1
50166;BME280;36071;48.140;11.516;2023-02-01T13:48:28;95890.0;;;4.3;65.6
50166;BME280;36071;48.140;11.516;2023-02-01T13:53:29;95890.0;;;4.4;65.7
50166;BME280;36071;48.140;11.516;2023-02-01T13:58:29;95900.0;;;4.4;65.8
50166;BME280;36071;48.140;11.516;2023-02-01T14:03:42;95900.0;;;4.4;65.7
50166;BME280;36071;48.140;11.516;2023-02-01T14:08:36;95910.0;;;4.3;65.9
50166;BME280;36071;48.140;11.516;2023-02-01T14:13:29;95910.0;;;4.3;65.3
50166;BME280;36071;48.140;11.516;2023-02-01T14:18:49;95900.0;;;4.3;65.4
50166;BME280;36071;48.140;11.516;2023-02-01T14:23:28;95890.0;;;4.4;64.9
50166;BME280;36071;48.140;11.516;2023-02-01T14:28:29;95900.0;;;4.3;64.7
50166;BME280;36071;48.140;11.516;2023-02-01T14:33:28;95910.0;;;4.3;63.7
50166;BME280;36071;48.140;11.516;2023-02-01T14:38:28;95900.0;;;4.3;63.5
50166;BME280;36071;48.140;11.516;2023-02-01T14:48:44;95910.0;;;4.3;63.0
50166;BME280;36071;48.140;11.516;2023-02-01T14:53:29;95900.0;;;4.3;62.8
50166;BME280;36071;48.140;11.516;2023-02-01T14:58:31;95910.0;;;4.3;62.8
50166;BME280;36071;48.140;11.516;2023-02-01T15:03:33;95910.0;;;4.3;63.0
50166;BME280;36071;48.140;11.516;2023-02-01T15:08:29;95910.0;;;4.3;63.2
50166;BME280;36071;48.140;11.516;2023-02-01T15:13:28;95910.0;;;4.3;63.6
50166;BME280;36071;48.140;11.516;2023-02-01T15:18:28;95930.0;;;4.2;64.1
50166;BME280;36071;48.140;11.516;2023-02-01T15:23:28;95930.0;;;4.2;64.4
50166;BME280;36071;48.140;11.516;2023-02-01T15:28:28;95930.0;;;4.1;65.2
50166;BME280;36071;48.140;11.516;2023-02-01T15:33:28;95930.0;;;4.0;65.4
50166;BME280;36071;48.140;11.516;2023-02-01T15:38:32;95920.0;;;4.0;65.8
50166;BME280;36071;48.140;11.516;2023-02-01T15:43:28;95930.0;;;3.8;67.1
50166;BME280;36071;48.140;11.516;2023-02-01T15:48:31;95930.0;;;3.8;67.7
50166;BME280;36071;48.140;11.516;2023-02-01T15:53:28;95930.0;;;3.8;68.0
50166;BME280;36071;48.140;11.516;2023-02-01T15:58:28;95940.0;;;3.8;68.4
50166;BME280;36071;48.140;11.516;2023-02-01T16:03:32;95940.0;;;3.8;68.2
50166;BME280;36071;48.140;11.516;2023-02-01T16:08:28;95940.0;;;3.7;68.3
50166;BME280;36071;48.140;11.516;2023-02-01T16:13:28;95940.0;;;3.8;67.0
50166;BME280;36071;48.140;11.516;2023-02-01T16:18:28;95940.0;;;3.8;66.2
50166;BME280;36071;48.140;11.516;2023-02-01T16:23:28;95940.0;;;3.8;65.4
50166;BME280;36071;48.140;11.516;2023-02-01T16:28:28;95970.0;;;3.8;65.0
50166;BME280;36071;48.140;11.516;2023-02-01T16:33:28;95970.0;;;3.9;64.4
50166;BME280;36071;48.140;11.516;2023-02-01T16:38:28;95970.0;;;3.9;64.5
50166;BME280;36071;48.140;11.516;2023-02-01T16:43:28;95970.0;;;3.8;64.5
50166;BME280;36071;48.140;11.516;2023-02-01T16:48:29;95960.0;;;3.8;64.4
50166;BME280;36071;48.140;11.516;2023-02-01T16:53:29;95930.0;;;3.9;64.3
50166;BME280;36071;48.140;11.516;2023-02-01T16:58:28;95940.0;;;3.9;64.0
50166;BME280;36071;48.140;11.516;2023-02-01T17:03:28;95940.0;;;3.8;63.7
50166;BME280;36071;48.140;11.516;2023-02-01T17:08:30;95930.0;;;3.9;63.0
50166;BME280;36071;48.140;11.516;2023-02-01T17:13:28;95940.0;;;3.9;62.8
50166;BME280;36071;48.140;11.516;2023-02-01T17:18:28;95940.0;;;3.9;62.2
50166;BME280;36071;48.140;11.516;2023-02-01T17:23:28;95950.0;;;4.0;61.5
50166;BME280;36071;48.140;11.516;2023-02-01T17:28:28;95930.0;;;4.0;61.4
50166;BME280;36071;48.140;11.516;2023-02-01T17:33:30;95930.0;;;4.0;61.5
50166;BME280;36071;48.140;11.516;2023-02-01T17:38:28;95940.0;;;4.0;61.3
50166;BME280;36071;48.140;11.516;2023-02-01T17:43:28;95950.0;;;4.0;60.8
50166;BME280;36071;48.140;11.516;2023-02-01T17:48:28;95940.0;;;4.0;60.6
50166;BME280;36071;48.140;11.516;2023-02-01T17:53:28;95950.0;;;4.0;60.5
50166;BME280;36071;48.140;11.516;2023-02-01T17:58:28;95940.0;;;4.0;60.4
50166;BME280;36071;48.140;11.516;2023-02-01T18:03:29;95930.0;;;4.0;59.9
50166;BME280;36071;48.140;11.516;2023-02-01T18:08:29;95930.0;;;4.0;59.5
50166;BME280;36071;48.140;11.516;2023-02-01T18:13:28;95950.0;;;4.0;59.5
50166;BME280;36071;48.140;11.516;2023-02-01T18:18:28;95940.0;;;4.1;59.3
50166;BME280;36071;48.140;11.516;2023-02-01T18:23:28;95940.0;;;4.1;59.2
50166;BME280;36071;48.140;11.516;2023-02-01T18:28:28;95950.0;;;4.1;59.2
50166;BME280;36071;48.140;11.516;2023-02-01T18:33:28;95950.0;;;4.1;59.0
50166;BME280;36071;48.140;11.516;2023-02-01T18:38:28;95950.0;;;4.1;58.7
50166;BME280;36071;48.140;11.516;2023-02-01T18:43:28;95960.0;;;4.1;58.5
50166;BME280;36071;48.140;11.516;2023-02-01T18:48:28;95950.0;;;4.1;58.6
50166;BME280;36071;48.140;11.516;2023-02-01T18:53:28;95950.0;;;4.1;58.5
50166;BME280;36071;48.140;11.516;2023-02-01T18:58:28;95930.0;;;4.1;58.5
50166;BME280;36071;48.140;11.516;2023-02-01T19:03:28;95940.0;;;4.1;58.6
50166;BME280;36071;48.140;11.516;2023-02-01T19:08:28;95930.0;;;4.1;58.5
50166;BME280;36071;48.140;11.516;2023-02-01T19:13:28;95940.0;;;4.1;58.3
50166;BME280;36071;48.140;11.516;2023-02-01T19:18:28;95950.0;;;4.0;58.3
50166;BME280;36071;48.140;11.516;2023-02-01T19:23:28;95930.0;;;4.1;58.3
50166;BME280;36071;48.140;11.516;2023-02-01T19:28:28;95920.0;;;4.1;58.1
50166;BME280;36071;48.140;11.516;2023-02-01T19:33:28;95910.0;;;4.1;58.2
50166;BME280;36071;48.140;11.516;2023-02-01T19:38:28;95930.0;;;4.1;58.4
50166;BME280;36071;48.140;11.516;2023-02-01T19:43:28;95940.0;;;4.1;58.6
50166;BME280;36071;48.140;11.516;2023-02-01T19:48:28;95920.0;;;4.1;58.6
50166;BME280;36071;48.140;11.516;2023-02-01T19:53:28;95930.0;;;4.0;58.6
50166;BME280;36071;48.140;11.516;2023-02-01T19:58:28;95920.0;;;4.1;58.6
50166;BME280;36071;48.140;11.516;2023-02-01T20:03:28;95920.0;;;4.0;58.6
50166;BME280;36071;48.140;11.516;2023-02-01T20:08:28;95930.0;;;4.0;58.8
50166;BME280;36071;48.140;11.516;2023-02-01T20:13:28;95930.0;;;4.1;58.7
50166;BME280;36071;48.140;11.516;2023-02-01T20:18:28;95940.0;;;4.1;58.6
50166;BME280;36071;48.140;11.516;2023-02-01T20:23:28;95950.0;;;4.1;58.6
50166;BME280;36071;48.140;11.516;2023-02-01T20:33:28;95960.0;;;4.1;58.2
50166;BME280;36071;48.140;11.516;2023-02-01T20:38:28;95970.0;;;4.1;58.4
50166;BME280;36071;48.140;11.516;2023-02-01T20:43:28;95960.0;;;4.2;58.4
50166;BME280;36071;48.140;11.516;2023-02-01T20:48:28;95970.0;;;4.1;58.7
50166;BME280;36071;48.140;11.516;2023-02-01T20:53:28;95940.0;;;4.5;60.2
50166;BME280;36071;48.140;11.516;2023-02-01T20:58:28;95950.0;;;4.7;59.4
50166;BME280;36071;48.140;11.516;2023-02-01T21:03:28;95950.0;;;4.8;58.8
50166;BME280;36071;48.140;11.516;2023-02-01T21:08:28;95950.0;;;4.8;58.4
50166;BME280;36071;48.140;11.516;2023-02-01T21:13:29;95940.0;;;4.6;58.1
50166;BME280;36071;48.140;11.516;2023-02-01T21:18:28;95940.0;;;4.4;59.3
50166;BME280;36071;48.140;11.516;2023-02-01T21:23:28;95940.0;;;4.3;59.6
50166;BME280;36071;48.140;11.516;2023-02-01T21:28:28;95920.0;;;4.2;59.8
50166;BME280;36071;48.140;11.516;2023-02-01T21:33:28;95910.0;;;4.1;60.8
50166;BME280;36071;48.140;11.516;2023-02-01T21:38:28;95940.0;;;4.1;61.4
50166;BME280;36071;48.140;11.516;2023-02-01T21:43:28;95930.0;;;4.0;61.4
50166;BME280;36071;48.140;11.516;2023-02-01T21:48:28;95920.0;;;4.0;61.7
50166;BME280;36071;48.140;11.516;2023-02-01T21:53:28;95920.0;;;4.1;61.5
50166;BME280;36071;48.140;11.516;2023-02-01T21:58:28;95910.0;;;4.0;61.1
50166;BME280;36071;48.140;11.516;2023-02-01T22:03:28;95920.0;;;4.0;61.6
50166;BME280;36071;48.140;11.516;2023-02-01T22:08:28;95930.0;;;4.1;61.3
50166;BME280;36071;48.140;11.516;2023-02-01T22:13:28;95910.0;;;4.1;61.2
50166;BME280;36071;48.140;11.516;2023-02-01T22:18:28;95960.0;;;4.1;61.0
50166;BME280;36071;48.140;11.516;2023-02-01T22:23:28;95940.0;;;4.1;61.2
50166;BME280;36071;48.140;11.516;2023-02-01T22:28:28;95940.0;;;4.0;61.4
50166;BME280;36071;48.140;11.516;2023-02-01T22:33:28;95940.0;;;4.1;61.3
50166;BME280;36071;48.140;11.516;2023-02-01T22:38:28;95930.0;;;4.0;61.5
50166;BME280;36071;48.140;11.516;2023-02-01T22:43:28;95940.0;;;4.0;62.0
50166;BME280;36071;48.140;11.516;2023-02-01T22:48:28;95920.0;;;4.0;62.3
50166;BME280;36071;48.140;11.516;2023-02-01T22:53:28;95940.0;;;4.0;62.9
50166;BME280;36071;48.140;11.516;2023-02-01T22:58:28;95940.0;;;3.9;63.9
50166;BME280;36071;48.140;11.516;2023-02-01T23:08:28;95910.0;;;3.8;64.0
50166;BME280;36071;48.140;11.516;2023-02-01T23:13:28;95920.0;;;3.9;63.7
50166;BME280;36071;48.140;11.516;2023-02-01T23:18:28;95930.0;;;3.9;64.0
50166;BME280;36071;48.140;11.516;2023-02-01T23:23:28;95930.0;;;3.9;63.9
50166;BME280;36071;48.140;11.516;2023-02-01T23:28:28;95910.0;;;3.9;63.5
50166;BME280;36071;48.140;11.516;2023-02-01T23:33:28;95910.0;;;3.8;63.4
50166;BME280;36071;48.140;11.516;2023-02-01T23:38:28;95910.0;;;3.9;63.1
50166;BME280;36071;48.140;11.516;2023-02-01T23:43:28;95910.0;;;3.9;62.8
50166;BME280;36071;48.140;11.516;2023-02-01T23:48:28;95920.0;;;3.9;62.3
50166;BME280;36071;48.140;11.516;2023-02-01T23:53:28;95920.0;;;4.0;62.5
50166;BME280;36071;48.140;11.516;2023-02-01T23:58:28;95920.0;;;4.0;62.4
